createdAt,value
2023-01-13T00:00:21.969Z,75.76
2023-01-13T00:02:51.719Z,75.73
2023-01-13T00:05:18.702Z,75.63
2023-01-13T00:08:38.147Z,75.75
2023-01-13T00:11:11.764Z,75.66
2023-01-13T00:13:40.815Z,75.67
2023-01-13T00:16:13.300Z,75.92
2023-01-13T00:18:41.566Z,76.13
2023-01-13T00:21:22.983Z,76.22
2023-01-13T00:23:52.181Z,76.91
2023-01-13T00:26:35.693Z,77.81
2023-01-13T00:31:32.977Z,80.04
2023-01-13T00:34:12.976Z,79.53
2023-01-13T00:37:32.333Z,80.54
2023-01-13T00:45:53.727Z,81.82
2023-01-13T01:28:39.923Z,78.90
2023-01-13T01:35:08.821Z,78.51
2023-01-13T01:45:47.970Z,77.68
2023-01-13T01:57:17.617Z,77.96
2023-01-13T02:04:19.625Z,77.81
2023-01-13T02:08:00.761Z,77.91
2023-01-13T02:25:29.717Z,77.82
2023-01-13T03:08:57.279Z,77.54
2023-01-13T03:16:56.769Z,78.28
2023-01-13T03:32:31.576Z,78.36
2023-01-13T03:35:34.312Z,78.11
2023-01-13T03:41:42.773Z,78.14
2023-01-13T04:01:34.908Z,77.31
2023-01-13T04:05:21.655Z,78.20
2023-01-13T04:13:34.808Z,78.14
2023-01-13T04:16:12.206Z,77.91
2023-01-13T04:18:52.139Z,78.08
2023-01-13T04:32:59.493Z,78.61
2023-01-13T06:01:32.846Z,78.83
2023-01-13T06:04:06.272Z,78.85
2023-01-13T06:06:46.449Z,78.93
2023-01-13T06:09:32.364Z,79.37
2023-01-13T06:14:46.307Z,78.92
2023-01-13T06:17:42.162Z,78.05
2023-01-13T06:20:28.117Z,77.77
2023-01-13T06:26:09.446Z,78.13
2023-01-13T06:28:45.133Z,77.50
2023-01-13T06:31:22.714Z,77.83
2023-01-13T06:36:45.004Z,78.22
2023-01-13T06:39:17.193Z,78.17
2023-01-13T06:42:12.915Z,77.93
2023-01-13T06:44:50.645Z,77.87
2023-01-13T06:47:30.195Z,78.10
2023-01-13T06:52:33.102Z,77.65
2023-01-13T06:57:34.986Z,77.35
2023-01-13T07:00:04.658Z,77.30
2023-01-13T07:02:39.799Z,76.87
2023-01-13T07:05:24.306Z,77.05
2023-01-13T07:07:52.991Z,77.13
2023-01-13T07:10:26.932Z,77.01
2023-01-13T07:13:12.055Z,76.67
2023-01-13T07:15:39.233Z,76.84
2023-01-13T07:18:11.780Z,77.09
2023-01-13T07:20:56.185Z,77.20
2023-01-13T07:23:33.027Z,77.15
2023-01-13T07:26:09.733Z,77.27
2023-01-13T07:28:50.638Z,76.30
2023-01-13T07:31:23.675Z,76.72
2023-01-13T07:34:00.337Z,76.17
2023-01-13T07:36:30.732Z,76.50
2023-01-13T07:39:04.391Z,76.05
2023-01-13T07:41:53.590Z,75.86
2023-01-13T07:44:29.059Z,75.75
2023-01-13T07:49:55.976Z,75.86
2023-01-13T07:52:29.453Z,75.27
2023-01-13T07:54:59.462Z,75.45
2023-01-13T07:57:39.276Z,75.48
2023-01-13T08:00:13.049Z,75.40
2023-01-13T08:02:52.908Z,75.28
2023-01-13T08:05:20.184Z,74.82
2023-01-13T08:07:48.969Z,74.85
2023-01-13T08:10:22.292Z,74.95
2023-01-13T08:15:51.486Z,75.05
2023-01-13T08:18:22.125Z,75.45
2023-01-13T08:20:49.213Z,74.88
2023-01-13T08:23:16.758Z,75.11
2023-01-13T08:25:54.407Z,74.82
2023-01-13T08:28:25.849Z,74.55
2023-01-13T08:30:59.248Z,74.77
2023-01-13T08:33:38.306Z,74.97
2023-01-13T08:36:15.464Z,74.94
2023-01-13T08:41:52.723Z,75.28
2023-01-13T08:44:34.263Z,75.42
2023-01-13T08:47:06.951Z,75.92
2023-01-13T08:49:42.722Z,78.06
2023-01-13T08:52:15.063Z,78.58
2023-01-13T08:54:44.901Z,80.46
2023-01-13T08:57:23.352Z,80.53
2023-01-13T08:59:56.089Z,82.14
2023-01-13T09:02:35.593Z,82.61
2023-01-13T09:05:10.736Z,83.76
2023-01-13T09:16:26.750Z,88.75
2023-01-13T10:07:18.121Z,97.42
2023-01-13T10:09:51.239Z,96.71
2023-01-13T10:12:41.422Z,95.58
2023-01-13T10:15:15.827Z,95.47
2023-01-13T10:17:45.321Z,96.07
2023-01-13T10:20:36.307Z,95.97
2023-01-13T10:23:11.297Z,95.93
2023-01-13T10:26:15.504Z,94.82
2023-01-13T10:28:42.080Z,96.95
2023-01-13T10:31:12.504Z,95.80
2023-01-13T10:33:47.204Z,95.93
2023-01-13T10:36:29.276Z,96.04
2023-01-13T10:39:09.430Z,95.37
2023-01-13T10:41:36.221Z,95.49
2023-01-13T10:44:17.537Z,95.25
2023-01-13T10:49:36.146Z,96.81
2023-01-13T10:52:04.455Z,94.85
2023-01-13T10:54:31.473Z,94.27
2023-01-13T10:57:22.493Z,93.27
2023-01-13T10:59:49.321Z,93.74
2023-01-13T11:02:36.723Z,94.10
2023-01-13T11:05:21.022Z,93.04
2023-01-13T11:10:31.326Z,92.50
2023-01-13T11:13:23.193Z,95.32
2023-01-13T11:15:56.189Z,93.09
2023-01-13T11:19:14.108Z,93.27
2023-01-13T11:21:46.799Z,92.67
2023-01-13T11:24:37.693Z,91.24
2023-01-13T11:27:07.427Z,90.66
2023-01-13T11:32:34.440Z,90.56
2023-01-13T11:37:52.534Z,90.15
2023-01-13T11:40:34.208Z,89.36
2023-01-13T11:43:45.443Z,90.52
2023-01-13T11:46:17.597Z,89.88
2023-01-13T11:58:09.321Z,84.32
2023-01-13T12:00:57.923Z,84.73
2023-01-13T12:03:40.155Z,85.46
2023-01-13T12:06:27.675Z,82.56
2023-01-13T12:09:44.782Z,81.79
2023-01-13T12:12:37.630Z,81.76
2023-01-13T12:15:15.203Z,82.76
2023-01-13T12:18:19.692Z,82.29
2023-01-13T12:20:55.545Z,82.81
2023-01-13T12:23:36.465Z,81.73
2023-01-13T12:27:12.501Z,80.60
2023-01-13T12:29:42.678Z,82.05
2023-01-13T12:32:17.939Z,82.25
2023-01-13T12:35:18.122Z,81.93
2023-01-13T12:38:06.998Z,82.14
2023-01-13T12:40:42.208Z,84.11
2023-01-13T12:43:38.179Z,84.62
2023-01-13T12:50:45.498Z,84.50
2023-01-13T12:53:47.487Z,84.18
2023-01-13T12:56:38.734Z,84.99
2023-01-13T12:59:28.394Z,85.45
2023-01-13T13:02:35.464Z,84.09
2023-01-13T13:05:15.376Z,86.38
2023-01-13T13:07:46.504Z,87.76
2023-01-13T13:10:56.140Z,88.00
2023-01-13T13:13:43.521Z,90.18
2023-01-13T13:16:29.456Z,89.55
2023-01-13T13:19:17.704Z,90.20
2023-01-13T13:22:25.987Z,88.46
2023-01-13T13:24:52.405Z,89.88
2023-01-13T13:27:31.933Z,88.41
2023-01-13T13:30:14.293Z,89.10
2023-01-13T13:33:04.560Z,85.40
2023-01-13T13:36:08.469Z,86.14
2023-01-13T13:39:22.087Z,83.32
2023-01-13T13:42:38.153Z,82.76
2023-01-13T13:45:40.059Z,82.39
2023-01-13T13:51:46.728Z,82.45
2023-01-13T13:54:19.867Z,82.72
2023-01-13T13:56:50.213Z,81.30
2023-01-13T13:59:30.778Z,80.37
2023-01-13T14:03:05.071Z,78.14
2023-01-13T14:06:34.539Z,78.52
2023-01-13T14:09:35.551Z,78.66
2023-01-13T14:12:47.635Z,77.97
2023-01-13T14:15:56.327Z,79.09
2023-01-13T14:18:23.295Z,79.61
2023-01-13T14:21:28.810Z,81.17
2023-01-13T14:24:10.644Z,80.90
2023-01-13T14:26:37.175Z,81.79
2023-01-13T14:29:06.346Z,81.97
2023-01-13T14:31:43.399Z,79.81
2023-01-13T14:34:32.911Z,80.88
2023-01-13T14:37:23.541Z,81.27
2023-01-13T14:40:29.824Z,79.95
2023-01-13T14:46:10.062Z,80.64
2023-01-13T14:51:45.087Z,79.10
2023-01-13T14:55:06.855Z,79.05
2023-01-13T15:00:51.956Z,79.81
2023-01-13T15:03:34.352Z,79.26
2023-01-13T15:06:29.411Z,78.83
2023-01-13T15:11:42.660Z,78.70
2023-01-13T15:14:41.460Z,79.22
2023-01-13T15:17:26.371Z,78.60
2023-01-13T15:19:56.421Z,79.24
2023-01-13T15:28:21.412Z,79.79
2023-01-13T15:36:44.954Z,80.70
2023-01-13T15:39:26.639Z,81.35
2023-01-13T15:42:30.474Z,81.46
2023-01-13T15:48:54.729Z,83.14
2023-01-13T15:51:58.836Z,83.15
2023-01-13T16:03:33.877Z,83.34
2023-01-13T16:06:54.563Z,83.51
2023-01-13T16:10:29.963Z,84.83
2023-01-13T16:13:00.159Z,85.20
2023-01-13T16:16:33.067Z,84.98
2023-01-13T16:19:26.554Z,85.75
2023-01-13T16:21:59.693Z,85.99
2023-01-13T16:24:32.221Z,84.76
2023-01-13T16:27:34.014Z,85.24
2023-01-13T16:32:35.537Z,83.96
2023-01-13T16:35:12.506Z,83.94
2023-01-13T16:38:01.684Z,84.14
2023-01-13T16:40:37.127Z,82.46
2023-01-13T16:49:41.858Z,82.98
2023-01-13T17:37:49.788Z,84.30
2023-01-13T17:41:58.510Z,84.56
2023-01-13T18:11:59.937Z,84.72
2023-01-13T18:50:20.582Z,81.98
2023-01-13T19:02:15.461Z,80.69
2023-01-13T19:05:53.571Z,80.97
2023-01-13T19:16:08.340Z,79.54
2023-01-13T19:18:52.697Z,78.39
2023-01-13T19:25:37.122Z,78.90
2023-01-13T19:37:54.989Z,79.50
2023-01-13T19:43:39.206Z,79.15
2023-01-13T19:49:54.513Z,78.95
2023-01-13T19:52:31.399Z,79.57
2023-01-13T19:59:20.611Z,79.90
2023-01-13T20:05:25.153Z,80.33
2023-01-13T20:14:31.563Z,80.37
2023-01-13T20:17:14.013Z,80.04
2023-01-13T20:20:01.047Z,79.90
2023-01-13T20:23:17.665Z,79.75
2023-01-13T20:26:03.097Z,79.40
2023-01-13T20:28:49.991Z,79.29
2023-01-13T20:31:23.586Z,79.48
2023-01-13T20:34:49.344Z,79.24
2023-01-13T20:37:31.339Z,79.32
2023-01-13T20:43:44.539Z,78.50
2023-01-13T20:46:28.983Z,78.60
2023-01-13T20:49:38.492Z,79.25
2023-01-13T20:52:15.158Z,79.59
2023-01-13T21:01:17.087Z,79.10
2023-01-13T21:04:05.319Z,79.10
2023-01-13T21:07:07.365Z,79.41
2023-01-13T21:09:39.582Z,79.67
2023-01-13T21:12:43.457Z,79.25
2023-01-13T21:15:26.124Z,79.49
2023-01-13T21:22:14.648Z,78.95
2023-01-13T21:25:07.720Z,78.95
2023-01-13T21:30:33.085Z,78.02
2023-01-13T21:33:10.587Z,79.18
2023-01-13T21:38:39.624Z,78.98
2023-01-13T21:41:40.321Z,79.59
2023-01-13T21:44:57.081Z,78.81
2023-01-13T21:50:40.837Z,78.83
2023-01-13T21:53:36.417Z,78.25
2023-01-13T21:56:26.739Z,79.18
2023-01-13T21:59:02.360Z,78.92
2023-01-13T22:04:27.796Z,78.29
2023-01-13T22:10:15.362Z,78.72
2023-01-13T22:12:53.958Z,78.98
2023-01-13T22:18:24.953Z,77.97
2023-01-13T22:21:15.854Z,78.17
2023-01-13T22:24:09.855Z,77.50
2023-01-13T22:26:54.432Z,78.26
2023-01-13T22:29:55.611Z,77.99
2023-01-13T22:32:32.105Z,78.56
2023-01-13T22:35:22.126Z,78.63
2023-01-13T22:40:42.026Z,79.44
2023-01-13T22:43:23.994Z,79.42
2023-01-13T22:46:23.035Z,79.44
2023-01-13T22:54:17.227Z,79.64
2023-01-13T22:56:49.386Z,79.43
2023-01-13T22:59:29.513Z,79.67
2023-01-13T23:02:08.243Z,79.45
2023-01-13T23:04:48.007Z,79.32
2023-01-13T23:07:41.685Z,78.91
2023-01-13T23:10:22.783Z,79.63
2023-01-13T23:12:53.932Z,78.77
2023-01-13T23:15:31.572Z,79.73
2023-01-13T23:18:13.038Z,80.40
2023-01-13T23:20:56.919Z,79.35
2023-01-13T23:23:31.064Z,80.15
2023-01-13T23:26:04.560Z,79.54
2023-01-13T23:28:50.479Z,80.69
2023-01-13T23:31:25.741Z,80.34
2023-01-13T23:36:34.885Z,80.68
2023-01-13T23:39:14.833Z,81.14
2023-01-13T23:41:55.092Z,81.21
2023-01-13T23:44:31.053Z,81.74
2023-01-13T23:47:16.145Z,80.95
2023-01-13T23:49:49.985Z,81.31
2023-01-13T23:52:24.180Z,81.24
2023-01-13T23:57:41.397Z,81.63
